Skip Navigation LinksHome page > Weather > Current weather Skip Navigation Links

Current Weather

Indira Gandhi Intl Apt, New Delhi, India

For information only: do not use for flight planning or navigation.
Latest weather
Observation time Friday, April 18, 2014 3:00 PM IST
Local time Friday, April 18, 2014 4:04 PM IST
Flight conditions Marginal Visual Meteorological Conditions
Winds
Wind direction Southeast (140°)
Wind speed 6 mph
Wind gusting to 17 mph
Visibility 3.7 mi.
Sky condition
Ceiling unlimited
Cloud layer few clouds 3,000 ft.
Cloud layer scattered clouds 10,000 ft.
Temperature 82°F
Dewpoint 57°F
Altimeter 29.91 in.Hg
Derived measurements
Relative humidity 42%
Heat index 82°F
Density altitude 1727 ft.
METAR VIDP 180930Z 14005G15KT 6000 FEW030 SCT100 28/14 Q1013 BECMG 5000

Settings

Location code

InnerDrive.Weather 4.0.4869.0 Release CLR 4.0.30319.18449
Copyright ©2013 Inner Drive Technology. All rights reserved. Portions Copyright ©1986-2013 David Braverman.

Find weather

Site navigation


Skip Navigation Links

Place info

Page info

PayPal - The safer, easier way to pay online!

Return home.

Copyright ©2014 Inner Drive Technology. Purveyors of fine, hand-crafted computer software. Page printed 2014-04-18T10:34:54 UTC.